createdAt,value
2023-04-27T00:04:55.339Z,7.00
2023-04-27T00:10:48.983Z,6.60
2023-04-27T00:16:44.152Z,6.90
2023-04-27T00:22:38.018Z,6.80
2023-04-27T00:28:31.433Z,6.80
2023-04-27T00:34:27.143Z,6.70
2023-04-27T00:40:22.098Z,6.60
2023-04-27T00:46:16.326Z,6.60
2023-04-27T00:52:11.638Z,6.60
2023-04-27T00:58:05.179Z,6.30
2023-04-27T01:03:58.836Z,6.20
2023-04-27T01:09:54.043Z,6.20
2023-04-27T01:15:47.467Z,6.40
2023-04-27T01:21:41.216Z,6.10
2023-04-27T01:27:35.943Z,6.10
2023-04-27T01:33:30.319Z,6.20
2023-04-27T01:39:23.726Z,6.10
2023-04-27T01:45:18.518Z,6.20
2023-04-27T01:51:12.075Z,6.30
2023-04-27T01:57:05.493Z,6.30
2023-04-27T02:03:01.688Z,6.20
2023-04-27T02:08:55.267Z,6.00
2023-04-27T02:14:48.728Z,6.10
2023-04-27T02:20:43.786Z,6.10
2023-04-27T02:26:37.379Z,5.90
2023-04-27T02:32:31.274Z,5.80
2023-04-27T02:38:26.307Z,5.90
2023-04-27T02:44:19.686Z,6.10
2023-04-27T02:50:14.128Z,6.00
2023-04-27T02:56:09.301Z,6.10
2023-04-27T03:02:02.686Z,6.10
2023-04-27T03:07:56.496Z,6.10
2023-04-27T03:13:51.247Z,6.20
2023-04-27T03:19:44.690Z,5.90
2023-04-27T03:25:38.284Z,6.00
2023-04-27T03:31:36.155Z,5.90
2023-04-27T03:37:29.456Z,6.00
2023-04-27T03:43:25.305Z,6.00
2023-04-27T03:49:19.666Z,6.10
2023-04-27T03:55:12.855Z,6.00
2023-04-27T04:01:10.478Z,6.00
2023-04-27T04:07:05.482Z,6.20
2023-04-27T04:12:59.055Z,6.30
2023-04-27T04:18:53.234Z,6.10
2023-04-27T04:24:49.004Z,5.90
2023-04-27T04:30:43.140Z,5.80
2023-04-27T04:36:36.606Z,5.80
2023-04-27T04:42:31.608Z,5.70
2023-04-27T04:53:47.266Z,5.90
2023-04-27T04:59:43.073Z,5.80
2023-04-27T05:05:38.418Z,5.60
2023-04-27T05:11:32.772Z,5.60
2023-04-27T05:17:26.315Z,5.70
2023-04-27T05:23:19.751Z,5.70
2023-04-27T05:29:14.532Z,5.70
2023-04-27T05:35:08.413Z,5.70
2023-04-27T05:41:01.871Z,5.70
2023-04-27T05:46:57.484Z,5.70
2023-04-27T05:52:50.456Z,5.80
2023-04-27T05:58:43.537Z,5.70
2023-04-27T06:04:39.065Z,5.80
2023-04-27T06:10:32.254Z,5.60
2023-04-27T06:16:25.923Z,5.80
2023-04-27T06:22:20.945Z,5.90
2023-04-27T06:28:13.951Z,6.10
2023-04-27T06:34:07.664Z,6.20
2023-04-27T06:40:02.075Z,6.20
2023-04-27T06:45:55.539Z,6.30
2023-04-27T06:51:49.726Z,6.40
2023-04-27T06:57:44.781Z,6.40
2023-04-27T07:03:38.010Z,6.50
2023-04-27T07:09:31.556Z,6.70
2023-04-27T07:15:27.470Z,6.80
2023-04-27T07:21:20.580Z,6.90
2023-04-27T07:27:15.451Z,6.90
2023-04-27T07:33:10.525Z,7.10
2023-04-27T07:39:04.792Z,7.10
2023-04-27T07:44:58.625Z,7.20
2023-04-27T07:50:54.165Z,7.50
2023-04-27T07:56:47.181Z,7.70
2023-04-27T08:02:40.814Z,8.00
2023-04-27T08:08:35.748Z,8.00
2023-04-27T08:14:28.844Z,7.90
2023-04-27T08:20:22.399Z,8.00
2023-04-27T08:26:17.163Z,8.10
2023-04-27T08:32:11.391Z,8.20
2023-04-27T08:38:04.506Z,8.30
2023-04-27T08:44:00.032Z,8.40
2023-04-27T08:49:53.571Z,8.50
2023-04-27T08:55:46.582Z,8.90
2023-04-27T09:01:46.452Z,8.70
2023-04-27T09:07:40.057Z,8.50
2023-04-27T09:13:37.131Z,8.40
2023-04-27T09:19:31.846Z,8.50
2023-04-27T09:25:29.553Z,8.90
2023-04-27T09:31:24.492Z,9.00
2023-04-27T09:37:20.519Z,8.80
2023-04-27T09:43:14.430Z,8.60
2023-04-27T09:49:07.603Z,8.70
2023-04-27T09:55:05.094Z,9.00
2023-04-27T10:01:05.927Z,9.30
2023-04-27T10:07:01.792Z,9.80
2023-04-27T10:13:02.188Z,11.00
2023-04-27T10:18:56.600Z,10.10
2023-04-27T10:24:51.287Z,9.50
2023-04-27T10:30:48.839Z,9.50
2023-04-27T10:36:42.184Z,10.20
2023-04-27T10:42:35.359Z,11.10
2023-04-27T10:48:31.960Z,10.50
2023-04-27T10:54:28.224Z,10.80
2023-04-27T11:00:25.858Z,10.80
2023-04-27T11:06:20.765Z,10.50
2023-04-27T11:12:15.260Z,10.00
2023-04-27T11:18:08.703Z,10.00
2023-04-27T11:24:07.641Z,10.10
2023-04-27T11:30:00.681Z,10.10
2023-04-27T11:35:54.141Z,10.00
2023-04-27T11:41:48.554Z,10.00
2023-04-27T11:47:48.406Z,10.10
2023-04-27T11:53:42.880Z,10.00
2023-04-27T11:59:37.705Z,10.10
2023-04-27T12:05:31.092Z,10.30
2023-04-27T12:11:24.894Z,10.80
2023-04-27T12:17:19.529Z,10.80
2023-04-27T12:23:12.541Z,10.90
2023-04-27T12:29:06.001Z,11.20
2023-04-27T12:35:00.779Z,11.20
2023-04-27T12:40:54.208Z,11.10
2023-04-27T12:46:48.669Z,11.20
2023-04-27T12:52:43.153Z,11.00
2023-04-27T12:58:36.776Z,10.50
2023-04-27T13:04:31.670Z,10.40
2023-04-27T13:10:26.668Z,10.50
2023-04-27T13:16:21.787Z,10.40
2023-04-27T13:22:14.866Z,10.80
2023-04-27T13:28:09.772Z,10.80
2023-04-27T13:34:05.074Z,10.70
2023-04-27T13:39:58.517Z,10.60
2023-04-27T13:45:55.062Z,10.30
2023-04-27T13:51:48.528Z,10.10
2023-04-27T13:57:41.577Z,10.10
2023-04-27T14:03:36.620Z,10.00
2023-04-27T14:09:30.225Z,10.00
2023-04-27T14:15:23.879Z,10.30
2023-04-27T14:21:18.273Z,10.40
2023-04-27T14:27:11.734Z,10.80
2023-04-27T14:33:04.935Z,12.90
2023-04-27T14:38:59.836Z,12.80
2023-04-27T14:44:53.406Z,12.40
2023-04-27T14:50:46.871Z,13.20
2023-04-27T14:56:41.722Z,13.30
2023-04-27T15:02:35.207Z,12.90
2023-04-27T15:08:31.241Z,12.30
2023-04-27T15:14:27.182Z,12.40
2023-04-27T15:20:20.965Z,12.30
2023-04-27T15:26:14.683Z,12.00
2023-04-27T15:32:09.589Z,11.50
2023-04-27T15:38:04.141Z,11.30
2023-04-27T15:43:57.148Z,11.10
2023-04-27T15:49:57.471Z,11.00
2023-04-27T15:55:51.794Z,11.10
2023-04-27T16:01:45.515Z,11.10
2023-04-27T16:07:41.601Z,11.10
2023-04-27T16:13:35.196Z,11.10
2023-04-27T16:19:28.808Z,11.10
2023-04-27T16:25:23.645Z,11.10
2023-04-27T16:31:16.961Z,11.10
2023-04-27T16:37:11.271Z,11.10
2023-04-27T16:43:05.673Z,11.00
2023-04-27T16:48:58.676Z,11.00
2023-04-27T16:54:52.151Z,10.90
2023-04-27T17:00:47.525Z,10.80
2023-04-27T17:06:41.471Z,10.70
2023-04-27T17:12:34.955Z,10.60
2023-04-27T17:18:29.768Z,10.50
2023-04-27T17:24:25.019Z,10.60
2023-04-27T17:30:18.548Z,10.40
2023-04-27T17:36:13.424Z,10.30
2023-04-27T17:42:07.307Z,10.20
2023-04-27T17:48:00.800Z,10.30
2023-04-27T17:53:55.208Z,10.20
2023-04-27T17:59:48.645Z,10.20
2023-04-27T18:05:41.782Z,10.20
2023-04-27T18:11:36.822Z,10.10
2023-04-27T18:17:30.279Z,10.10
2023-04-27T18:23:23.708Z,10.10
2023-04-27T18:29:18.536Z,10.00
2023-04-27T18:35:12.051Z,10.00
2023-04-27T18:41:05.554Z,10.00
2023-04-27T18:47:01.266Z,9.90
2023-04-27T18:52:54.306Z,10.00
2023-04-27T18:58:48.975Z,9.90
2023-04-27T19:04:49.081Z,9.90
2023-04-27T19:10:52.176Z,9.70
2023-04-27T19:16:45.821Z,9.60
2023-04-27T19:22:40.833Z,9.40
2023-04-27T19:28:34.358Z,9.30
2023-04-27T19:34:27.498Z,9.30
2023-04-27T19:40:21.809Z,9.10
2023-04-27T19:46:15.281Z,9.10
2023-04-27T19:52:08.782Z,9.00
2023-04-27T19:58:03.601Z,9.00
2023-04-27T20:07:32.654Z,9.30
2023-04-27T20:13:26.383Z,9.30
2023-04-27T20:19:21.156Z,9.20
2023-04-27T20:25:16.083Z,8.80
2023-04-27T20:31:09.565Z,8.90
2023-04-27T20:37:03.543Z,8.90
2023-04-27T20:42:58.340Z,8.90
2023-04-27T20:48:51.753Z,8.70
2023-04-27T20:54:45.597Z,8.80
2023-04-27T21:00:40.385Z,8.90
2023-04-27T21:06:33.846Z,8.80
2023-04-27T21:12:27.318Z,8.70
2023-04-27T21:18:29.875Z,8.50
2023-04-27T21:24:25.118Z,8.40
2023-04-27T21:30:18.843Z,8.20
2023-04-27T21:36:14.320Z,8.20
2023-04-27T21:42:08.075Z,8.30
2023-04-27T21:48:01.520Z,8.40
2023-04-27T21:53:56.496Z,8.30
2023-04-27T21:59:50.020Z,8.00
2023-04-27T22:05:43.700Z,8.00
2023-04-27T22:11:38.513Z,8.00
2023-04-27T22:17:32.021Z,7.90
2023-04-27T22:23:56.164Z,7.80
2023-04-27T22:29:49.587Z,8.20
2023-04-27T22:35:43.012Z,8.00
2023-04-27T22:41:38.268Z,8.10
2023-04-27T22:47:31.759Z,8.10
2023-04-27T22:53:25.492Z,8.00
2023-04-27T22:59:23.111Z,7.90
2023-04-27T23:05:17.022Z,8.20
2023-04-27T23:11:13.979Z,8.20
2023-04-27T23:17:08.798Z,8.20
2023-04-27T23:23:02.252Z,8.20
2023-04-27T23:28:55.782Z,8.10
2023-04-27T23:34:54.083Z,8.10
2023-04-27T23:40:47.554Z,8.10
2023-04-27T23:46:41.182Z,8.10
2023-04-27T23:52:36.030Z,8.00
2023-04-27T23:58:29.472Z,8.00
